Time,TemperatureF,DewpointF,PressureIn,WindDirection,WindDirectionDegrees,WindSpeedMPH,WindSpeedGustMPH,Humidity,HourlyPrecipIn,Conditions,Clouds,dailyrainin,SoftwareType,DateUTC
2013-03-26 00:02:00,38.0,22.0,30.40,ENE,75,5.0,5.0,53,0.00,,,0.00,,2013-03-26 05:02:00,
2013-03-26 00:12:00,38.0,22.0,30.40,ENE,75,5.0,5.0,53,0.00,,,0.00,,2013-03-26 05:12:00,
2013-03-26 00:22:00,37.0,23.0,30.40,ESE,107,6.0,6.0,56,0.00,,,0.00,,2013-03-26 05:22:00,
2013-03-26 00:32:00,36.0,23.0,30.40,East,80,5.0,5.0,58,0.00,,,0.00,,2013-03-26 05:32:00,
2013-03-26 00:42:00,36.0,23.0,30.40,East,80,5.0,5.0,58,0.00,,,0.00,,2013-03-26 05:42:00,
2013-03-26 00:52:00,35.0,22.0,30.40,East,97,5.0,5.0,59,0.00,,,0.00,,2013-03-26 05:52:00,
2013-03-26 01:02:00,34.0,21.0,30.40,ESE,120,5.0,6.0,59,0.00,,,0.00,,2013-03-26 06:02:00,
2013-03-26 01:12:00,34.0,21.0,30.40,ESE,120,5.0,6.0,59,0.00,,,0.00,,2013-03-26 06:12:00,
2013-03-26 01:22:00,33.0,20.0,30.40,ESE,120,5.0,5.0,59,0.00,,,0.00,,2013-03-26 06:22:00,
2013-03-26 01:32:00,33.0,21.0,30.40,SE,135,5.0,5.0,60,0.00,,,0.00,,2013-03-26 06:32:00,
2013-03-26 01:42:00,33.0,21.0,30.40,SE,135,5.0,5.0,60,0.00,,,0.00,,2013-03-26 06:42:00,
2013-03-26 01:52:00,32.0,20.0,30.41,SE,125,5.0,5.0,61,0.00,,,0.00,,2013-03-26 06:52:00,
2013-03-26 02:02:00,32.0,20.0,30.41,SSE,149,4.0,4.0,61,0.00,,,0.00,,2013-03-26 07:02:00,
2013-03-26 02:12:00,32.0,20.0,30.41,SSE,149,4.0,4.0,61,0.00,,,0.00,,2013-03-26 07:12:00,
2013-03-26 02:22:00,31.0,20.0,30.41,SSE,152,0.0,0.0,62,0.00,,,0.00,,2013-03-26 07:22:00,
2013-03-26 02:32:00,29.0,18.0,30.41,South,176,0.0,0.0,63,0.00,,,0.00,,2013-03-26 07:32:00,
2013-03-26 02:42:00,29.0,18.0,30.41,South,176,0.0,0.0,63,0.00,,,0.00,,2013-03-26 07:42:00,
2013-03-26 02:52:00,28.0,18.0,30.41,South,176,0.0,0.0,66,0.00,,,0.00,,2013-03-26 07:52:00,
2013-03-26 03:02:00,27.0,18.0,30.41,South,176,0.0,0.0,67,0.00,,,0.00,,2013-03-26 08:02:00,
2013-03-26 03:12:00,27.0,18.0,30.41,South,176,0.0,0.0,67,0.00,,,0.00,,2013-03-26 08:12:00,
2013-03-26 03:22:00,27.0,18.0,30.41,South,176,0.0,0.0,69,0.00,,,0.00,,2013-03-26 08:22:00,
2013-03-26 03:32:00,27.0,20.0,30.41,South,176,0.0,0.0,73,0.00,,,0.00,,2013-03-26 08:32:00,
2013-03-26 03:42:00,27.0,20.0,30.41,South,176,0.0,0.0,73,0.00,,,0.00,,2013-03-26 08:42:00,
2013-03-26 03:52:00,27.0,19.0,30.41,South,176,0.0,0.0,72,0.00,,,0.00,,2013-03-26 08:52:00,
2013-03-26 04:02:00,26.0,19.0,30.41,South,176,0.0,0.0,74,0.00,,,0.00,,2013-03-26 09:02:00,
2013-03-26 04:12:00,26.0,19.0,30.41,South,176,0.0,0.0,74,0.00,,,0.00,,2013-03-26 09:12:00,
2013-03-26 04:22:00,25.0,19.0,30.42,South,176,0.0,0.0,78,0.00,,,0.00,,2013-03-26 09:22:00,
2013-03-26 04:33:00,25.0,20.0,30.42,South,176,0.0,0.0,80,0.00,,,0.00,,2013-03-26 09:33:00,
2013-03-26 04:42:00,25.0,20.0,30.42,South,176,0.0,0.0,80,0.00,,,0.00,,2013-03-26 09:42:00,
2013-03-26 04:52:00,25.0,20.0,30.42,South,176,0.0,0.0,80,0.00,,,0.00,,2013-03-26 09:52:00,
2013-03-26 05:02:00,24.0,18.0,30.42,South,176,0.0,0.0,78,0.00,,,0.00,,2013-03-26 10:02:00,
2013-03-26 05:12:00,24.0,18.0,30.42,South,176,0.0,0.0,78,0.00,,,0.00,,2013-03-26 10:12:00,
2013-03-26 05:22:00,24.0,18.0,30.42,South,176,0.0,0.0,76,0.00,,,0.00,,2013-03-26 10:22:00,
2013-03-26 05:32:00,24.0,18.0,30.43,South,176,0.0,0.0,78,0.00,,,0.00,,2013-03-26 10:32:00,
2013-03-26 05:42:00,24.0,18.0,30.43,South,176,0.0,0.0,78,0.00,,,0.00,,2013-03-26 10:42:00,
2013-03-26 05:53:00,25.0,19.0,30.43,South,176,0.0,0.0,78,0.00,,,0.00,,2013-03-26 10:53:00,
2013-03-26 06:03:00,25.0,20.0,30.43,South,176,0.0,0.0,81,0.00,,,0.00,,2013-03-26 11:03:00,
2013-03-26 06:12:00,25.0,20.0,30.43,South,176,0.0,0.0,81,0.00,,,0.00,,2013-03-26 11:12:00,
2013-03-26 06:22:00,26.0,21.0,30.44,South,176,0.0,0.0,82,0.00,,,0.00,,2013-03-26 11:22:00,
2013-03-26 06:32:00,25.0,20.0,30.43,South,176,0.0,0.0,80,0.00,,,0.00,,2013-03-26 11:32:00,
2013-03-26 06:42:00,25.0,20.0,30.43,South,176,0.0,0.0,80,0.00,,,0.00,,2013-03-26 11:42:00,
2013-03-26 06:52:00,26.0,20.0,30.44,South,176,0.0,0.0,77,0.00,,,0.00,,2013-03-26 11:52:00,
2013-03-26 07:03:00,26.0,20.0,30.44,South,176,0.0,0.0,77,0.00,,,0.00,,2013-03-26 12:03:00,
2013-03-26 07:12:00,27.0,20.0,30.44,South,176,0.0,0.0,75,0.00,,,0.00,,2013-03-26 12:12:00,
2013-03-26 07:22:00,26.0,19.0,30.45,NE,38,1.0,1.0,75,0.00,,,0.00,,2013-03-26 12:22:00,
2013-03-26 07:32:00,26.0,19.0,30.45,NE,38,0.0,0.0,76,0.00,,,0.00,,2013-03-26 12:32:00,
2013-03-26 07:42:00,26.0,19.0,30.45,NE,38,0.0,0.0,76,0.00,,,0.00,,2013-03-26 12:42:00,
2013-03-26 07:52:00,25.0,19.0,30.46,NE,38,0.0,0.0,76,0.00,,,0.00,,2013-03-26 12:52:00,
2013-03-26 08:03:00,25.0,19.0,30.46,NE,38,0.0,0.0,76,0.00,,,0.00,,2013-03-26 13:03:00,
2013-03-26 08:12:00,25.0,19.0,30.46,NE,38,0.0,0.0,76,0.00,,,0.00,,2013-03-26 13:12:00,
2013-03-26 08:22:00,27.0,20.0,30.47,NNE,27,2.0,2.0,75,0.00,,,0.00,,2013-03-26 13:22:00,
2013-03-26 08:32:00,31.0,23.0,30.48,NNE,17,0.0,0.0,72,0.00,,,0.00,,2013-03-26 13:32:00,
2013-03-26 08:42:00,31.0,23.0,30.48,NNE,17,0.0,0.0,72,0.00,,,0.00,,2013-03-26 13:42:00,
2013-03-26 08:52:00,35.0,26.0,30.48,NNE,17,0.0,0.0,69,0.00,,,0.00,,2013-03-26 13:52:00,
2013-03-26 09:02:00,39.0,27.0,30.48,NNE,17,0.0,0.0,62,0.00,,,0.00,,2013-03-26 14:02:00,
2013-03-26 09:11:00,39.0,27.0,30.48,NNE,17,0.0,0.0,62,0.00,,,0.00,,2013-03-26 14:11:00,
2013-03-26 09:22:00,43.0,29.0,30.48,NNE,17,0.0,0.0,58,0.00,,,0.00,,2013-03-26 14:22:00,
2013-03-26 09:32:00,43.0,27.0,30.48,East,83,3.0,0.0,53,0.00,,,0.00,,2013-03-26 14:32:00,
2013-03-26 09:42:00,43.0,27.0,30.48,East,83,3.0,0.0,53,0.00,,,0.00,,2013-03-26 14:42:00,
2013-03-26 09:52:00,47.0,29.0,30.48,ESE,122,3.0,4.0,50,0.00,,,0.00,,2013-03-26 14:52:00,
2013-03-26 10:02:00,52.0,31.0,30.48,ESE,122,6.0,6.0,45,0.00,,,0.00,,2013-03-26 15:02:00,
2013-03-26 10:12:00,52.0,31.0,30.48,ESE,122,6.0,6.0,45,0.00,,,0.00,,2013-03-26 15:12:00,
2013-03-26 10:22:00,54.0,31.0,30.48,SSE,155,8.0,8.0,41,0.00,,,0.00,,2013-03-26 15:22:00,
2013-03-26 10:33:00,56.0,31.0,30.48,SE,124,7.0,7.0,39,0.00,,,0.00,,2013-03-26 15:33:00,
2013-03-26 10:42:00,56.0,31.0,30.48,SE,124,7.0,7.0,39,0.00,,,0.00,,2013-03-26 15:42:00,
2013-03-26 10:53:00,59.0,32.0,30.47,SSE,159,4.0,6.0,36,0.00,,,0.00,,2013-03-26 15:53:00,
2013-03-26 11:02:00,61.0,32.0,30.46,SSE,156,10.0,10.0,33,0.00,,,0.00,,2013-03-26 16:02:00,
2013-03-26 11:12:00,61.0,32.0,30.46,SSE,156,10.0,10.0,33,0.00,,,0.00,,2013-03-26 16:12:00,
2013-03-26 11:22:00,63.0,32.0,30.46,SSE,153,8.0,9.0,31,0.00,,,0.00,,2013-03-26 16:22:00,
2013-03-26 11:32:00,64.0,33.0,30.45,ENE,59,8.0,11.0,31,0.00,,,0.00,,2013-03-26 16:32:00,
2013-03-26 11:42:00,64.0,33.0,30.45,ENE,59,8.0,11.0,31,0.00,,,0.00,,2013-03-26 16:42:00,
2013-03-26 11:53:00,64.0,32.0,30.43,SSE,150,13.0,13.0,30,0.00,,,0.00,,2013-03-26 16:53:00,
2013-03-26 12:02:00,66.0,33.0,30.43,South,177,7.0,7.0,29,0.00,,,0.00,,2013-03-26 17:02:00,
2013-03-26 12:12:00,66.0,33.0,30.43,South,177,7.0,7.0,29,0.00,,,0.00,,2013-03-26 17:12:00,
2013-03-26 12:23:00,68.0,33.0,30.42,SSE,166,8.0,8.0,27,0.00,,,0.00,,2013-03-26 17:23:00,
2013-03-26 12:32:00,68.0,33.0,30.42,SSE,158,11.0,11.0,27,0.00,,,0.00,,2013-03-26 17:32:00,
2013-03-26 12:42:00,68.0,33.0,30.42,SSE,158,11.0,11.0,27,0.00,,,0.00,,2013-03-26 17:42:00,
2013-03-26 12:53:00,69.0,32.0,30.40,SSW,204,9.0,9.0,25,0.00,,,0.00,,2013-03-26 17:53:00,
2013-03-26 13:02:00,70.0,33.0,30.39,SSW,193,9.0,9.0,25,0.00,,,0.00,,2013-03-26 18:02:00,
2013-03-26 13:12:00,70.0,33.0,30.39,SSW,193,9.0,9.0,25,0.00,,,0.00,,2013-03-26 18:12:00,
2013-03-26 13:23:00,71.0,32.0,30.38,SSE,163,0.0,1.0,24,0.00,,,0.00,,2013-03-26 18:23:00,
2013-03-26 13:33:00,72.0,32.0,30.37,SSW,207,6.0,8.0,23,0.00,,,0.00,,2013-03-26 18:33:00,
2013-03-26 13:42:00,72.0,32.0,30.37,SSW,207,6.0,8.0,23,0.00,,,0.00,,2013-03-26 18:42:00,
2013-03-26 13:53:00,73.0,33.0,30.36,SSE,165,8.0,13.0,23,0.00,,,0.00,,2013-03-26 18:53:00,
2013-03-26 14:02:00,74.0,32.0,30.35,South,181,9.0,9.0,21,0.00,,,0.00,,2013-03-26 19:02:00,
2013-03-26 14:12:00,74.0,32.0,30.35,South,181,9.0,9.0,21,0.00,,,0.00,,2013-03-26 19:12:00,
2013-03-26 14:22:00,73.0,31.0,30.34,SE,135,12.0,12.0,21,0.00,,,0.00,,2013-03-26 19:22:00,
2013-03-26 14:32:00,74.0,30.0,30.32,SSE,166,6.0,13.0,20,0.00,,,0.00,,2013-03-26 19:32:00,
2013-03-26 14:42:00,74.0,30.0,30.32,SSE,166,6.0,13.0,20,0.00,,,0.00,,2013-03-26 19:42:00,
2013-03-26 14:53:00,73.0,31.0,30.31,East,94,7.0,0.0,21,0.00,,,0.00,,2013-03-26 19:53:00,
2013-03-26 15:02:00,73.0,30.0,30.29,SE,142,6.0,7.0,20,0.00,,,0.00,,2013-03-26 20:02:00,
2013-03-26 15:12:00,73.0,30.0,30.29,SE,142,6.0,7.0,20,0.00,,,0.00,,2013-03-26 20:12:00,
2013-03-26 15:22:00,73.0,30.0,30.28,South,177,13.0,13.0,20,0.00,,,0.00,,2013-03-26 20:22:00,
2013-03-26 15:32:00,74.0,29.0,30.27,SSE,163,7.0,7.0,19,0.00,,,0.00,,2013-03-26 20:32:00,
2013-03-26 15:42:00,74.0,29.0,30.27,SSE,163,7.0,7.0,19,0.00,,,0.00,,2013-03-26 20:42:00,
2013-03-26 15:52:00,73.0,28.0,30.27,SE,141,9.0,10.0,19,0.00,,,0.00,,2013-03-26 20:52:00,
2013-03-26 16:02:00,73.0,28.0,30.25,East,79,10.0,11.0,19,0.00,,,0.00,,2013-03-26 21:02:00,
2013-03-26 16:12:00,73.0,28.0,30.25,East,79,10.0,11.0,19,0.00,,,0.00,,2013-03-26 21:12:00,
2013-03-26 16:22:00,73.0,28.0,30.25,SSW,201,9.0,13.0,19,0.00,,,0.00,,2013-03-26 21:22:00,
2013-03-26 16:32:00,73.0,28.0,30.25,SSW,201,9.0,13.0,19,0.00,,,0.00,,2013-03-26 21:32:00,
2013-03-26 16:42:00,73.0,28.0,30.25,SSW,201,9.0,13.0,19,0.00,,,0.00,,2013-03-26 21:42:00,
2013-03-26 16:52:00,73.0,28.0,30.25,SSW,201,9.0,13.0,19,0.00,,,0.00,,2013-03-26 21:52:00,
2013-03-26 18:22:00,70.0,28.0,30.18,SSE,158,7.0,7.0,21,0.00,,,0.00,,2013-03-26 23:22:00,
2013-03-26 18:32:00,69.0,27.0,30.18,SSE,153,12.0,14.0,21,0.00,,,0.00,,2013-03-26 23:32:00,
2013-03-26 18:43:00,69.0,27.0,30.18,SSE,153,12.0,14.0,21,0.00,,,0.00,,2013-03-26 23:43:00,
2013-03-26 18:52:00,68.0,28.0,30.18,SSE,162,9.0,9.0,22,0.00,,,0.00,,2013-03-26 23:52:00,
2013-03-26 19:02:00,67.0,27.0,30.17,SSE,158,12.0,12.0,22,0.00,,,0.00,,2013-03-27 00:02:00,
2013-03-26 19:12:00,67.0,27.0,30.17,SSE,158,12.0,12.0,22,0.00,,,0.00,,2013-03-27 00:12:00,
2013-03-26 19:22:00,65.0,26.0,30.17,SSE,156,9.0,13.0,23,0.00,,,0.00,,2013-03-27 00:22:00,
2013-03-26 19:32:00,63.0,26.0,30.17,SSE,153,8.0,11.0,24,0.00,,,0.00,,2013-03-27 00:32:00,
2013-03-26 19:42:00,63.0,26.0,30.17,SSE,153,8.0,11.0,24,0.00,,,0.00,,2013-03-27 00:42:00,
2013-03-26 19:52:00,61.0,26.0,30.17,SSE,150,8.0,9.0,26,0.00,,,0.00,,2013-03-27 00:52:00,
2013-03-26 20:02:00,59.0,26.0,30.17,South,174,7.0,9.0,28,0.00,,,0.00,,2013-03-27 01:02:00,
2013-03-26 20:12:00,59.0,26.0,30.17,South,174,7.0,9.0,28,0.00,,,0.00,,2013-03-27 01:12:00,
2013-03-26 20:22:00,56.0,25.0,30.18,SSE,165,5.0,6.0,30,0.00,,,0.00,,2013-03-27 01:22:00,
2013-03-26 20:33:00,53.0,25.0,30.18,SSE,160,6.0,6.0,33,0.00,,,0.00,,2013-03-27 01:33:00,
2013-03-26 20:42:00,53.0,25.0,30.18,SSE,160,6.0,6.0,33,0.00,,,0.00,,2013-03-27 01:42:00,
2013-03-26 20:53:00,51.0,24.0,30.19,SSE,165,6.0,6.0,35,0.00,,,0.00,,2013-03-27 01:53:00,
2013-03-26 21:02:00,50.0,25.0,30.19,South,176,6.0,7.0,37,0.00,,,0.00,,2013-03-27 02:02:00,
2013-03-26 21:12:00,50.0,25.0,30.19,South,176,6.0,7.0,37,0.00,,,0.00,,2013-03-27 02:12:00,
2013-03-26 21:22:00,48.0,24.0,30.19,SSE,166,6.0,6.0,38,0.00,,,0.00,,2013-03-27 02:22:00,
2013-03-26 21:32:00,47.0,23.0,30.20,SSE,166,6.0,6.0,38,0.00,,,0.00,,2013-03-27 02:32:00,
2013-03-26 21:42:00,47.0,23.0,30.20,SSE,166,6.0,6.0,38,0.00,,,0.00,,2013-03-27 02:42:00,
2013-03-26 21:53:00,46.0,22.0,30.21,South,177,6.0,6.0,38,0.00,,,0.00,,2013-03-27 02:53:00,
2013-03-26 22:02:00,46.0,22.0,30.21,South,177,6.0,7.0,39,0.00,,,0.00,,2013-03-27 03:02:00,
2013-03-26 22:12:00,46.0,22.0,30.21,South,177,6.0,7.0,39,0.00,,,0.00,,2013-03-27 03:12:00,
2013-03-26 22:22:00,45.0,22.0,30.22,SSE,160,7.0,7.0,40,0.00,,,0.00,,2013-03-27 03:22:00,
2013-03-26 22:33:00,44.0,22.0,30.22,SSE,167,6.0,7.0,41,0.00,,,0.00,,2013-03-27 03:33:00,
2013-03-26 22:42:00,44.0,22.0,30.22,SSE,167,6.0,7.0,41,0.00,,,0.00,,2013-03-27 03:42:00,
2013-03-26 22:53:00,44.0,22.0,30.22,SSE,155,6.0,7.0,42,0.00,,,0.00,,2013-03-27 03:53:00,
2013-03-26 23:02:00,43.0,22.0,30.22,South,177,6.0,7.0,43,0.00,,,0.00,,2013-03-27 04:02:00,
2013-03-26 23:13:00,43.0,22.0,30.22,South,177,6.0,7.0,43,0.00,,,0.00,,2013-03-27 04:13:00,
2013-03-26 23:23:00,43.0,23.0,30.22,SSE,163,6.0,6.0,44,0.00,,,0.00,,2013-03-27 04:23:00,
2013-03-26 23:33:00,42.0,22.0,30.23,SSE,165,6.0,6.0,45,0.00,,,0.00,,2013-03-27 04:33:00,
2013-03-26 23:42:00,42.0,22.0,30.23,SSE,165,6.0,6.0,45,0.00,,,0.00,,2013-03-27 04:42:00,
2013-03-26 23:52:00,42.0,22.0,30.23,SE,143,6.0,6.0,45,0.00,,,0.00,,2013-03-27 04:52:00,